createdAt,value
2019-05-13T00:00:37.039Z,3.90
2019-05-13T00:03:06.612Z,4.00
2019-05-13T00:05:35.759Z,3.47
2019-05-13T00:08:05.136Z,3.90
2019-05-13T00:10:35.222Z,3.92
2019-05-13T00:13:04.789Z,3.27
2019-05-13T00:15:36.932Z,2.90
2019-05-13T00:18:06.102Z,3.65
2019-05-13T00:20:35.328Z,3.60
2019-05-13T00:23:05.606Z,3.53
2019-05-13T00:25:35.535Z,3.33
2019-05-13T00:28:05.139Z,4.10
2019-05-13T00:30:34.528Z,3.17
2019-05-13T00:33:04.141Z,3.30
2019-05-13T00:35:34.058Z,3.37
2019-05-13T00:38:04.101Z,3.27
2019-05-13T00:40:34.103Z,3.30
2019-05-13T00:43:04.003Z,3.73
2019-05-13T00:45:33.822Z,3.40
2019-05-13T00:48:04.807Z,3.10
2019-05-13T00:50:34.492Z,3.35
2019-05-13T00:53:04.914Z,2.90
2019-05-13T00:55:34.689Z,2.97
2019-05-13T00:58:04.899Z,2.62
2019-05-13T01:00:34.400Z,2.93
2019-05-13T01:03:04.330Z,3.10
2019-05-13T01:05:34.163Z,2.50
2019-05-13T01:08:04.430Z,3.25
2019-05-13T01:10:34.723Z,2.77
2019-05-13T01:13:04.907Z,4.60
2019-05-13T01:15:34.675Z,3.10
2019-05-13T01:18:04.287Z,2.98
2019-05-13T01:20:34.755Z,3.05
2019-05-13T01:23:04.254Z,3.50
2019-05-13T01:25:33.707Z,2.73
2019-05-13T01:28:04.689Z,2.60
2019-05-13T01:30:34.815Z,2.62
2019-05-13T01:33:04.588Z,2.27
2019-05-13T01:35:34.528Z,2.62
2019-05-13T01:38:04.651Z,2.90
2019-05-13T01:40:34.956Z,2.60
2019-05-13T01:43:04.334Z,2.77
2019-05-13T01:45:34.018Z,2.73
2019-05-13T01:48:07.069Z,3.10
2019-05-13T01:50:34.309Z,2.43
2019-05-13T01:53:04.434Z,2.47
2019-05-13T01:55:34.343Z,2.87
2019-05-13T01:58:04.442Z,2.80
2019-05-13T02:00:35.372Z,2.70
2019-05-13T02:03:05.760Z,2.62
2019-05-13T02:05:34.915Z,2.70
2019-05-13T02:08:04.675Z,2.30
2019-05-13T02:11:08.146Z,2.40
2019-05-13T02:13:37.339Z,2.60
2019-05-13T02:16:06.748Z,2.43
2019-05-13T02:18:35.942Z,2.37
2019-05-13T02:21:05.730Z,2.53
2019-05-13T02:23:35.795Z,2.67
2019-05-13T02:26:05.078Z,3.30
2019-05-13T02:28:34.303Z,2.07
2019-05-13T02:31:06.350Z,2.30
2019-05-13T02:33:35.475Z,3.00
2019-05-13T02:36:04.648Z,2.97
2019-05-13T02:38:36.866Z,2.00
2019-05-13T02:41:06.334Z,2.17
2019-05-13T02:43:35.551Z,2.00
2019-05-13T02:46:04.822Z,2.73
2019-05-13T02:48:34.914Z,2.30
2019-05-13T02:51:04.514Z,2.67
2019-05-13T02:53:33.986Z,2.40
2019-05-13T02:56:03.617Z,2.47
2019-05-13T02:58:33.695Z,2.50
2019-05-13T03:01:03.543Z,2.45
2019-05-13T03:03:33.178Z,2.20
2019-05-13T03:06:03.231Z,2.60
2019-05-13T03:08:40.935Z,2.70
2019-05-13T03:11:03.562Z,2.60
2019-05-13T03:13:33.263Z,2.13
2019-05-13T03:16:17.960Z,2.62
2019-05-13T03:18:47.805Z,2.27
2019-05-13T03:21:17.217Z,2.30
2019-05-13T03:23:47.148Z,2.40
2019-05-13T03:26:16.588Z,2.50
2019-05-13T03:28:45.750Z,2.17
2019-05-13T03:31:17.743Z,1.90
2019-05-13T03:33:47.643Z,2.20
2019-05-13T03:36:18.136Z,2.37
2019-05-13T03:39:01.638Z,2.60
2019-05-13T03:41:22.549Z,2.72
2019-05-13T03:43:53.229Z,2.75
2019-05-13T03:46:23.919Z,2.47
2019-05-13T03:48:54.534Z,3.37
2019-05-13T03:51:24.076Z,2.23
2019-05-13T03:53:53.717Z,2.30
2019-05-13T03:56:24.085Z,2.30
2019-05-13T03:58:54.667Z,3.07
2019-05-13T04:01:24.274Z,2.50
2019-05-13T04:03:53.828Z,2.40
2019-05-13T04:06:23.894Z,2.10
2019-05-13T04:08:54.916Z,2.40
2019-05-13T04:11:24.256Z,2.30
2019-05-13T04:13:53.643Z,2.83
2019-05-13T04:16:23.936Z,2.37
2019-05-13T04:18:53.982Z,1.97
2019-05-13T04:21:24.476Z,2.60
2019-05-13T04:23:53.765Z,2.60
2019-05-13T04:26:24.174Z,3.03
2019-05-13T04:28:56.067Z,2.47
2019-05-13T04:31:25.336Z,2.30
2019-05-13T04:33:54.702Z,2.37
2019-05-13T04:36:24.037Z,2.60
2019-05-13T04:38:53.678Z,2.10
2019-05-13T04:41:23.559Z,2.10
2019-05-13T04:43:56.270Z,2.00
2019-05-13T04:46:25.519Z,2.40
2019-05-13T04:48:55.115Z,2.60
2019-05-13T04:51:27.667Z,3.90
2019-05-13T04:54:04.230Z,2.10
2019-05-13T04:56:34.430Z,2.63
2019-05-13T04:59:06.643Z,2.62
2019-05-13T05:02:17.293Z,2.13
2019-05-13T05:04:56.282Z,3.00
2019-05-13T05:07:53.354Z,2.63
2019-05-13T05:10:50.012Z,2.37
2019-05-13T05:14:02.960Z,1.90
2019-05-13T05:16:56.849Z,1.95
2019-05-13T05:20:32.242Z,2.07
2019-05-13T05:23:24.599Z,2.43
2019-05-13T05:26:18.864Z,2.20
2019-05-13T05:29:26.168Z,2.30
2019-05-13T05:32:51.867Z,2.90
2019-05-13T05:35:56.696Z,2.63
2019-05-13T05:38:51.992Z,2.60
2019-05-13T05:41:26.880Z,2.47
2019-05-13T05:43:58.694Z,2.08
2019-05-13T05:46:32.378Z,2.27
2019-05-13T05:49:07.283Z,2.63
2019-05-13T05:51:38.911Z,2.90
2019-05-13T05:54:14.002Z,2.50
2019-05-13T05:56:42.011Z,2.10
2019-05-13T05:59:12.527Z,2.20
2019-05-13T06:01:45.398Z,2.33
2019-05-13T06:04:14.928Z,2.40
2019-05-13T06:06:47.569Z,2.45
2019-05-13T06:09:16.827Z,2.20
2019-05-13T06:11:46.124Z,2.80
2019-05-13T06:14:15.448Z,2.60
2019-05-13T06:16:44.712Z,2.58
2019-05-13T06:19:17.587Z,2.70
2019-05-13T06:21:45.571Z,2.43
2019-05-13T06:24:14.720Z,2.23
2019-05-13T06:26:44.156Z,2.27
2019-05-13T06:29:13.738Z,2.47
2019-05-13T06:31:42.911Z,2.72
2019-05-13T06:34:12.737Z,1.60
2019-05-13T06:36:42.429Z,2.12
2019-05-13T06:39:12.483Z,2.80
2019-05-13T06:41:41.907Z,2.10
2019-05-13T06:44:12.154Z,2.43
2019-05-13T06:46:42.336Z,3.23
2019-05-13T06:49:12.330Z,2.47
2019-05-13T06:51:41.929Z,2.97
2019-05-13T06:54:11.476Z,2.57
2019-05-13T06:56:42.859Z,2.37
2019-05-13T06:59:11.989Z,3.20
2019-05-13T07:01:42.410Z,2.60
2019-05-13T07:04:12.141Z,3.00
2019-05-13T07:06:42.029Z,2.97
2019-05-13T07:09:12.039Z,2.60
2019-05-13T07:11:41.884Z,2.30
2019-05-13T07:14:12.696Z,2.72
2019-05-13T07:16:42.250Z,2.80
2019-05-13T07:19:11.913Z,2.83
2019-05-13T07:21:41.860Z,2.30
2019-05-13T07:24:12.666Z,2.40
2019-05-13T07:26:42.563Z,2.40
2019-05-13T07:29:13.065Z,3.30
2019-05-13T07:31:42.813Z,2.37
2019-05-13T07:34:12.389Z,3.47
2019-05-13T07:36:42.358Z,2.83
2019-05-13T07:39:12.088Z,2.60
2019-05-13T07:41:43.079Z,3.00
2019-05-13T07:44:12.254Z,2.30
2019-05-13T07:46:42.718Z,2.97
2019-05-13T07:49:12.154Z,2.90
2019-05-13T07:51:42.033Z,2.73
2019-05-13T07:54:11.696Z,2.40
2019-05-13T07:56:42.679Z,3.60
2019-05-13T07:59:12.369Z,2.43
2019-05-13T08:01:42.014Z,2.40
2019-05-13T08:04:21.784Z,2.40
2019-05-13T08:06:42.355Z,2.47
2019-05-13T08:09:12.773Z,2.40
2019-05-13T08:11:59.998Z,2.60
2019-05-13T08:14:13.039Z,2.47
2019-05-13T08:16:42.804Z,2.63
2019-05-13T08:19:12.575Z,2.58
2019-05-13T08:21:41.927Z,2.30
2019-05-13T08:24:11.950Z,3.57
2019-05-13T08:26:47.516Z,2.72
2019-05-13T08:29:12.463Z,2.30
2019-05-13T08:31:42.356Z,2.43
2019-05-13T08:34:11.864Z,2.70
2019-05-13T08:36:42.615Z,2.33
2019-05-13T08:39:12.752Z,3.15
2019-05-13T08:41:42.498Z,2.33
2019-05-13T08:44:12.396Z,2.63
2019-05-13T08:46:42.075Z,2.57
2019-05-13T08:49:12.042Z,2.27
2019-05-13T08:51:42.336Z,3.70
2019-05-13T08:54:11.792Z,2.55
2019-05-13T08:56:41.781Z,1.65
2019-05-13T08:59:11.664Z,2.45
2019-05-13T09:01:42.626Z,2.70
2019-05-13T09:04:12.723Z,2.60
2019-05-13T09:06:42.105Z,2.50
2019-05-13T09:09:11.691Z,2.23
2019-05-13T09:11:42.184Z,2.00
2019-05-13T09:14:11.781Z,2.57
2019-05-13T09:16:42.043Z,1.83
2019-05-13T09:19:15.907Z,2.30
2019-05-13T09:21:42.513Z,2.20
2019-05-13T09:24:21.715Z,2.10
2019-05-13T09:26:42.869Z,2.03
2019-05-13T09:29:12.396Z,2.08
2019-05-13T09:31:41.739Z,2.03
2019-05-13T09:36:42.052Z,2.25
2019-05-13T09:39:12.613Z,2.35
2019-05-13T09:41:44.506Z,2.05
2019-05-13T09:44:12.900Z,1.50
2019-05-13T09:46:42.632Z,2.00
2019-05-13T09:49:19.398Z,2.03
2019-05-13T09:51:42.844Z,1.63
2019-05-13T09:54:12.061Z,2.30
2019-05-13T09:56:41.566Z,1.30
2019-05-13T09:59:11.686Z,1.82
2019-05-13T10:01:42.473Z,1.82
2019-05-13T10:04:12.128Z,1.80
2019-05-13T10:06:42.256Z,1.30
2019-05-13T10:09:12.529Z,1.40
2019-05-13T10:11:42.130Z,1.80
2019-05-13T10:14:11.888Z,1.60
2019-05-13T10:16:42.504Z,1.40
2019-05-13T10:19:12.883Z,1.60
2019-05-13T10:21:42.370Z,1.62
2019-05-13T10:24:12.736Z,1.60
2019-05-13T10:26:43.266Z,1.20
2019-05-13T10:29:12.955Z,1.43
2019-05-13T10:31:42.457Z,1.50
2019-05-13T10:34:13.984Z,1.57
2019-05-13T10:36:42.891Z,1.20
2019-05-13T10:39:12.443Z,1.20
2019-05-13T10:41:42.458Z,1.93
2019-05-13T10:44:12.351Z,1.17
2019-05-13T10:46:42.821Z,1.40
2019-05-13T10:49:12.526Z,1.10
2019-05-13T10:51:42.109Z,1.25
2019-05-13T10:54:11.266Z,1.33
2019-05-13T10:56:43.013Z,1.30
2019-05-13T10:59:12.620Z,1.53
2019-05-13T11:01:42.759Z,1.73
2019-05-13T11:04:13.601Z,1.20
2019-05-13T11:06:43.228Z,1.23
2019-05-13T11:09:13.242Z,1.20
2019-05-13T11:11:42.623Z,1.22
2019-05-13T11:14:15.572Z,1.20
2019-05-13T11:16:43.091Z,1.13
2019-05-13T11:19:13.122Z,1.30
2019-05-13T11:21:43.320Z,1.20
2019-05-13T11:24:13.445Z,1.03
2019-05-13T11:26:42.578Z,1.10
2019-05-13T11:29:12.348Z,1.13
2019-05-13T11:31:42.949Z,1.10
2019-05-13T11:34:12.666Z,1.73
2019-05-13T11:36:43.344Z,1.10
2019-05-13T11:39:13.297Z,1.30
2019-05-13T11:41:43.353Z,1.47
2019-05-13T11:44:16.782Z,1.10
2019-05-13T11:46:44.178Z,1.25
2019-05-13T11:49:13.680Z,1.23
2019-05-13T11:51:43.298Z,1.37
2019-05-13T11:54:14.256Z,1.20
2019-05-13T11:56:49.175Z,1.27
2019-05-13T11:59:14.513Z,1.00
2019-05-13T12:01:43.778Z,1.10
2019-05-13T12:04:12.982Z,1.12
2019-05-13T12:06:48.000Z,1.03
2019-05-13T12:09:14.098Z,1.00
2019-05-13T12:11:43.803Z,1.40
2019-05-13T12:14:37.152Z,1.17
2019-05-13T12:16:44.340Z,1.23
2019-05-13T12:19:13.503Z,1.00
2019-05-13T12:21:46.444Z,1.10
2019-05-13T12:24:13.762Z,1.40
2019-05-13T12:26:45.977Z,1.55
2019-05-13T12:29:19.028Z,1.00
2019-05-13T12:31:46.238Z,1.20
2019-05-13T12:34:16.102Z,1.50
2019-05-13T12:36:45.539Z,1.02
2019-05-13T12:39:14.959Z,1.30
2019-05-13T12:41:45.296Z,1.00
2019-05-13T12:44:14.419Z,1.53
2019-05-13T12:46:49.924Z,1.07
2019-05-13T12:49:17.979Z,1.00
2019-05-13T12:51:47.155Z,1.10
2019-05-13T12:54:16.650Z,1.13
2019-05-13T12:56:45.949Z,1.40
2019-05-13T12:59:15.280Z,1.00
2019-05-13T13:01:44.858Z,1.10
2019-05-13T13:04:14.301Z,1.10
2019-05-13T13:06:45.534Z,1.30
2019-05-13T13:09:14.753Z,1.10
2019-05-13T13:11:44.185Z,1.07
2019-05-13T13:14:15.616Z,1.20
2019-05-13T13:16:44.555Z,1.27
2019-05-13T13:19:15.069Z,1.00
2019-05-13T13:21:44.414Z,1.32
2019-05-13T13:24:13.565Z,1.20
2019-05-13T13:26:43.043Z,1.40
2019-05-13T13:29:12.318Z,1.12
2019-05-13T13:31:43.126Z,1.30
2019-05-13T13:34:18.100Z,1.17
2019-05-13T13:36:46.083Z,1.37
2019-05-13T13:39:15.274Z,1.10
2019-05-13T13:41:44.696Z,1.37
2019-05-13T13:44:14.190Z,0.90
2019-05-13T13:46:49.533Z,1.40
2019-05-13T13:49:15.398Z,1.42
2019-05-13T13:51:49.104Z,1.40
2019-05-13T13:54:18.325Z,1.10
2019-05-13T13:56:47.564Z,1.50
2019-05-13T13:59:16.803Z,1.30
2019-05-13T14:01:46.108Z,1.17
2019-05-13T14:04:16.436Z,1.70
2019-05-13T14:07:03.320Z,2.13
2019-05-13T14:09:16.978Z,1.20
2019-05-13T14:11:46.144Z,1.32
2019-05-13T14:14:15.397Z,1.13
2019-05-13T14:16:46.732Z,1.33
2019-05-13T14:19:16.139Z,1.43
2019-05-13T14:21:45.278Z,1.17
2019-05-13T14:24:14.901Z,1.33
2019-05-13T14:26:45.973Z,1.60
2019-05-13T14:29:15.542Z,1.57
2019-05-13T14:31:45.900Z,1.33
2019-05-13T14:34:15.159Z,1.20
2019-05-13T14:36:44.367Z,1.20
2019-05-13T14:39:13.904Z,1.40
2019-05-13T14:41:43.662Z,1.33
2019-05-13T14:44:12.862Z,1.40
2019-05-13T14:46:47.550Z,1.27
2019-05-13T14:49:13.086Z,1.20
2019-05-13T14:51:42.277Z,1.50
2019-05-13T14:54:11.521Z,1.37
2019-05-13T14:56:42.106Z,1.60
2019-05-13T14:59:11.909Z,1.23
2019-05-13T15:01:41.445Z,1.40
2019-05-13T15:04:12.396Z,1.37
2019-05-13T15:06:41.885Z,1.50
2019-05-13T15:09:12.802Z,1.50
2019-05-13T15:11:43.370Z,1.22
2019-05-13T15:14:12.586Z,1.93
2019-05-13T15:16:42.595Z,1.57
2019-05-13T15:19:12.222Z,1.23
2019-05-13T15:21:41.527Z,1.37
2019-05-13T15:24:12.368Z,1.37
2019-05-13T15:26:42.311Z,1.30
2019-05-13T15:29:12.797Z,1.60
2019-05-13T15:31:42.291Z,1.23
2019-05-13T15:34:11.729Z,1.20
2019-05-13T15:36:42.072Z,1.17
2019-05-13T15:39:11.959Z,1.37
2019-05-13T15:41:41.900Z,1.40
2019-05-13T15:44:11.631Z,1.30
2019-05-13T15:46:41.660Z,1.40
2019-05-13T15:49:12.350Z,1.33
2019-05-13T15:51:42.358Z,1.10
2019-05-13T15:54:15.273Z,1.52
2019-05-13T15:56:43.047Z,1.43
2019-05-13T15:59:12.862Z,1.10
2019-05-13T16:01:42.242Z,1.25
2019-05-13T16:04:13.458Z,1.40
2019-05-13T16:06:42.531Z,1.65
2019-05-13T16:09:11.911Z,1.30
2019-05-13T16:11:41.558Z,1.50
2019-05-13T16:14:11.735Z,1.70
2019-05-13T16:16:43.109Z,1.47
2019-05-13T16:19:12.325Z,1.60
2019-05-13T16:21:41.831Z,1.30
2019-05-13T16:24:12.125Z,3.43
2019-05-13T16:26:42.718Z,1.57
2019-05-13T16:29:12.648Z,1.43
2019-05-13T16:31:43.065Z,1.20
2019-05-13T16:34:13.577Z,1.10
2019-05-13T16:36:43.360Z,1.30
2019-05-13T16:39:12.941Z,1.27
2019-05-13T16:41:42.831Z,1.40
2019-05-13T16:44:12.337Z,1.37
2019-05-13T16:46:42.516Z,1.05
2019-05-13T16:49:12.542Z,1.10
2019-05-13T16:51:42.579Z,1.10
2019-05-13T16:54:12.546Z,1.30
2019-05-13T16:56:42.172Z,1.00
2019-05-13T16:59:12.106Z,1.00
2019-05-13T17:01:42.083Z,1.27
2019-05-13T17:04:12.573Z,1.17
2019-05-13T17:06:42.725Z,1.10
2019-05-13T17:09:12.595Z,1.20
2019-05-13T17:11:41.811Z,1.57
2019-05-13T17:14:11.079Z,1.40
2019-05-13T17:16:41.442Z,1.00
2019-05-13T17:19:12.287Z,1.10
2019-05-13T17:21:41.566Z,1.40
2019-05-13T17:24:12.467Z,1.77
2019-05-13T17:26:41.914Z,1.10
2019-05-13T17:29:12.000Z,1.20
2019-05-13T17:31:41.833Z,1.13
2019-05-13T17:34:12.095Z,1.10
2019-05-13T17:36:42.057Z,1.10
2019-05-13T17:39:12.744Z,1.00
2019-05-13T17:41:42.191Z,1.40
2019-05-13T17:44:11.861Z,1.20
2019-05-13T17:46:42.043Z,1.10
2019-05-13T17:49:11.966Z,1.30
2019-05-13T17:51:42.478Z,1.10
2019-05-13T17:54:12.126Z,1.37
2019-05-13T17:56:41.310Z,1.10
2019-05-13T17:59:11.587Z,1.17
2019-05-13T18:01:41.461Z,1.50
2019-05-13T18:04:11.738Z,1.70
2019-05-13T18:06:41.867Z,1.20
2019-05-13T18:09:12.199Z,1.42
2019-05-13T18:11:42.050Z,1.37
2019-05-13T18:14:11.592Z,1.20
2019-05-13T18:16:41.915Z,1.43
2019-05-13T18:19:12.051Z,1.30
2019-05-13T18:21:43.925Z,1.30
2019-05-13T18:24:13.256Z,1.30
2019-05-13T18:26:42.512Z,1.43
2019-05-13T18:29:12.797Z,2.50
2019-05-13T18:31:42.358Z,1.17
2019-05-13T18:34:12.341Z,1.17
2019-05-13T18:36:42.535Z,1.40
2019-05-13T18:39:12.548Z,1.40
2019-05-13T18:41:42.147Z,1.13
2019-05-13T18:44:12.189Z,1.30
2019-05-13T18:46:42.039Z,1.40
2019-05-13T18:49:14.135Z,1.30
2019-05-13T18:51:43.552Z,1.20
2019-05-13T18:54:13.151Z,1.40
2019-05-13T18:56:46.438Z,1.10
2019-05-13T18:59:14.723Z,4.03
2019-05-13T19:01:44.055Z,1.50
2019-05-13T19:04:13.728Z,1.53
2019-05-13T19:06:43.228Z,1.43
2019-05-13T19:09:16.219Z,1.33
2019-05-13T19:11:48.792Z,1.70
2019-05-13T19:14:23.263Z,1.30
2019-05-13T19:16:52.552Z,1.77
2019-05-13T19:19:22.898Z,1.40
2019-05-13T19:21:53.064Z,1.40
2019-05-13T19:24:23.836Z,1.30
2019-05-13T19:26:54.500Z,1.53
2019-05-13T19:29:31.767Z,1.47
2019-05-13T19:32:03.174Z,1.30
2019-05-13T19:34:34.200Z,1.50
2019-05-13T19:37:06.055Z,1.20
2019-05-13T19:39:37.069Z,1.77
2019-05-13T19:46:31.338Z,1.70
2019-05-13T20:07:01.629Z,1.30
2019-05-13T20:18:28.944Z,2.37
2019-05-13T22:55:28.301Z,2.50
2019-05-13T23:13:31.613Z,2.45
